Time;durP1;ratioP1;P1;durP2;ratioP2;P2;SDS_P1;SDS_P2;PMS_P1;PMS_P2;Temp;Humidity;BMP_temperature;BMP_pressure;BME280_temperature;BME280_humidity;BME280_pressure;Samples;Min_cycle;Max_cycle;Signal;HPM_P1;HPM_P2
2021/05/17 00:01:34;;;;;;;1.27;1.00;;;;;;;;;;4980558;28;20428;-71
2021/05/17 00:04:04;;;;;;;0.90;0.90;;;;;;;;;;4985208;28;20451;-73
2021/05/17 00:06:30;;;;;;;0.97;0.87;;;;;;;;;;4987825;28;20469;-72
2021/05/17 00:08:56;;;;;;;0.80;0.80;;;;;;;;;;5003264;28;20531;-71
2021/05/17 00:11:22;;;;;;;0.70;0.70;;;;;;;;;;4995940;28;20437;-72
2021/05/17 00:13:48;;;;;;;1.10;1.00;;;;;;;;;;4983810;28;20770;-72
2021/05/17 00:16:14;;;;;;;0.80;0.80;;;;;;;;;;4982140;28;20432;-71
2021/05/17 00:18:40;;;;;;;0.80;0.80;;;;;;;;;;4981559;28;20984;-73
2021/05/17 00:21:06;;;;;;;1.53;1.03;;;;;;;;;;4983530;28;21009;-72
2021/05/17 00:23:33;;;;;;;0.73;0.73;;;;;;;;;;4996080;28;20834;-73
2021/05/17 00:25:59;;;;;;;1.13;1.03;;;;;;;;;;4999308;28;20436;-76
2021/05/17 00:28:25;;;;;;;2.17;0.90;;;;;;;;;;4996989;28;20463;-73
2021/05/17 00:30:51;;;;;;;0.70;0.70;;;;;;;;;;4997522;28;20436;-73
2021/05/17 00:33:17;;;;;;;0.80;0.80;;;;;;;;;;4976078;28;20440;-73
2021/05/17 00:35:44;;;;;;;0.97;0.63;;;;;;;;;;5001620;28;20440;-71
2021/05/17 00:38:10;;;;;;;1.47;1.10;;;;;;;;;;4976395;28;20465;-72
2021/05/17 00:40:36;;;;;;;0.77;0.77;;;;;;;;;;4998200;28;20455;-71
2021/05/17 00:43:06;;;;;;;2.03;1.90;;;;;;;;;;4998938;28;20436;-76
2021/05/17 00:45:32;;;;;;;2.37;0.93;;;;;;;;;;4986348;28;20455;-73
2021/05/17 00:47:58;;;;;;;1.60;0.97;;;;;;;;;;4982141;28;20456;-76
2021/05/17 00:50:25;;;;;;;1.10;1.00;;;;;;;;;;4993193;28;20805;-72
2021/05/17 00:52:52;;;;;;;1.47;1.17;;;;;;;;;;4980993;28;20436;-71
2021/05/17 00:55:18;;;;;;;1.33;1.23;;;;;;;;;;5001454;28;20989;-72
2021/05/17 00:57:45;;;;;;;2.30;1.27;;;;;;;;;;4975865;28;20483;-72
2021/05/17 01:00:13;;;;;;;1.30;1.20;;;;;;;;;;4995411;28;20475;-71
2021/05/17 01:02:39;;;;;;;1.10;0.77;;;;;;;;;;4994020;28;20491;-72
2021/05/17 01:05:06;;;;;;;1.07;1.07;;;;;;;;;;4983677;28;20427;-74
2021/05/17 01:07:32;;;;;;;1.13;0.90;;;;;;;;;;4979880;28;20461;-72
2021/05/17 01:09:59;;;;;;;1.53;1.43;;;;;;;;;;4976695;28;20810;-72
2021/05/17 01:12:25;;;;;;;0.90;0.87;;;;;;;;;;4984606;28;20471;-73
2021/05/17 01:14:57;;;;;;;1.27;1.17;;;;;;;;;;4996509;28;20527;-71
2021/05/17 01:17:24;;;;;;;2.43;1.17;;;;;;;;;;4983863;28;20492;-74
2021/05/17 01:19:59;;;;;;;1.60;1.27;;;;;;;;;;5003789;28;20495;-71
2021/05/17 01:22:33;;;;;;;1.43;1.33;;;;;;;;;;4993422;28;20432;-72
2021/05/17 01:25:00;;;;;;;1.33;1.10;;;;;;;;;;4983131;28;20448;-72
2021/05/17 01:27:26;;;;;;;1.63;1.40;;;;;;;;;;4981238;28;20563;-71
2021/05/17 01:29:52;;;;;;;1.70;1.60;;;;;;;;;;4979207;28;20856;-72
2021/05/17 01:32:18;;;;;;;2.83;1.10;;;;;;;;;;4999054;28;20536;-73
2021/05/17 01:34:45;;;;;;;1.47;1.30;;;;;;;;;;5000747;28;20459;-72
2021/05/17 01:37:11;;;;;;;1.10;1.10;;;;;;;;;;4983526;28;20459;-72
2021/05/17 01:39:37;;;;;;;1.70;1.20;;;;;;;;;;4978604;28;20986;-71
2021/05/17 01:42:03;;;;;;;1.00;1.00;;;;;;;;;;5001901;28;20463;-71
2021/05/17 01:44:30;;;;;;;1.10;0.90;;;;;;;;;;4994668;28;20523;-72
2021/05/17 01:46:59;;;;;;;1.57;1.43;;;;;;;;;;4997808;28;20468;-72
2021/05/17 01:49:26;;;;;;;1.20;1.10;;;;;;;;;;4979122;28;20574;-72
2021/05/17 01:51:52;;;;;;;1.07;1.07;;;;;;;;;;4997527;28;20469;-72
2021/05/17 01:54:19;;;;;;;1.90;1.43;;;;;;;;;;4999264;28;20443;-75
2021/05/17 01:56:46;;;;;;;2.50;1.40;;;;;;;;;;4993577;28;20474;-71
2021/05/17 01:59:12;;;;;;;1.53;1.03;;;;;;;;;;4979669;28;20507;-71
2021/05/17 02:01:38;;;;;;;0.90;0.80;;;;;;;;;;4998412;28;20552;-71
2021/05/17 02:04:05;;;;;;;1.40;1.30;;;;;;;;;;4994807;28;20519;-72
2021/05/17 02:06:32;;;;;;;1.20;1.20;;;;;;;;;;4995542;28;20472;-72
2021/05/17 02:08:58;;;;;;;1.60;1.07;;;;;;;;;;4993905;28;20994;-72
2021/05/17 02:11:25;;;;;;;1.00;0.93;;;;;;;;;;4993844;28;20477;-72
2021/05/17 02:13:52;;;;;;;4.97;1.37;;;;;;;;;;4997209;28;20448;-72
2021/05/17 02:16:18;;;;;;;1.77;1.40;;;;;;;;;;4976723;28;20806;-71
2021/05/17 02:18:45;;;;;;;1.60;1.33;;;;;;;;;;5003663;28;20440;-71
2021/05/17 02:21:13;;;;;;;1.37;1.27;;;;;;;;;;4983367;28;21254;-72
2021/05/17 02:23:39;;;;;;;1.60;1.17;;;;;;;;;;5000986;28;20440;-72
2021/05/17 02:26:05;;;;;;;1.60;1.47;;;;;;;;;;4980072;28;20431;-72
2021/05/17 02:28:32;;;;;;;1.77;1.67;;;;;;;;;;4975899;28;20547;-72
2021/05/17 02:30:58;;;;;;;1.33;1.20;;;;;;;;;;4993012;28;20598;-73
2021/05/17 02:33:24;;;;;;;2.60;1.63;;;;;;;;;;4976573;28;20449;-74
2021/05/17 02:35:50;;;;;;;1.73;1.63;;;;;;;;;;4985068;28;20448;-73
2021/05/17 02:38:17;;;;;;;1.73;1.63;;;;;;;;;;5002162;28;20522;-72
2021/05/17 02:40:43;;;;;;;4.93;1.73;;;;;;;;;;4974680;28;20460;-73
2021/05/17 02:43:10;;;;;;;1.57;1.47;;;;;;;;;;4998231;28;20436;-72
2021/05/17 02:45:37;;;;;;;1.33;1.23;;;;;;;;;;4987969;28;20988;-71
2021/05/17 02:48:04;;;;;;;1.53;1.40;;;;;;;;;;4976323;28;20469;-73
2021/05/17 02:50:38;;;;;;;3.30;1.60;;;;;;;;;;4992538;28;21133;-73
2021/05/17 02:53:23;;;;;;;4.23;1.87;;;;;;;;;;5000307;28;20440;-72
2021/05/17 02:55:50;;;;;;;1.57;1.37;;;;;;;;;;5002764;28;20466;-72
2021/05/17 02:58:18;;;;;;;3.13;1.70;;;;;;;;;;4984823;28;20503;-72
2021/05/17 03:00:47;;;;;;;3.43;1.80;;;;;;;;;;4998702;28;20555;-73
2021/05/17 03:03:15;;;;;;;1.50;1.30;;;;;;;;;;4979779;28;20433;-72
2021/05/17 03:05:42;;;;;;;1.80;1.50;;;;;;;;;;4998082;28;20444;-73
2021/05/17 03:08:10;;;;;;;2.13;1.60;;;;;;;;;;4987163;28;20456;-73
2021/05/17 03:10:37;;;;;;;1.63;1.37;;;;;;;;;;5001141;28;20928;-72
2021/05/17 03:13:09;;;;;;;2.00;1.73;;;;;;;;;;4984994;28;20441;-71
2021/05/17 03:15:36;;;;;;;1.97;1.87;;;;;;;;;;5002854;28;21016;-73
2021/05/17 03:18:02;;;;;;;1.30;1.20;;;;;;;;;;5002974;28;20472;-75
2021/05/17 03:20:28;;;;;;;2.60;1.03;;;;;;;;;;4985196;28;20493;-72
2021/05/17 03:22:58;;;;;;;1.10;1.00;;;;;;;;;;5006957;28;20451;-72
2021/05/17 03:25:26;;;;;;;1.23;1.13;;;;;;;;;;5007616;28;20427;-73
2021/05/17 03:27:52;;;;;;;1.73;1.00;;;;;;;;;;4984919;28;20514;-71
2021/05/17 03:30:19;;;;;;;3.27;1.53;;;;;;;;;;4980649;28;20435;-72
2021/05/17 03:32:45;;;;;;;3.40;1.23;;;;;;;;;;4997846;28;20982;-72
2021/05/17 03:35:11;;;;;;;1.70;1.60;;;;;;;;;;5006350;28;20471;-72
2021/05/17 03:37:37;;;;;;;1.23;1.10;;;;;;;;;;5003027;28;20456;-71
2021/05/17 03:40:03;;;;;;;2.03;1.57;;;;;;;;;;5004247;28;20463;-73
2021/05/17 03:42:29;;;;;;;1.60;1.50;;;;;;;;;;4987504;28;20436;-72
2021/05/17 03:44:55;;;;;;;1.17;1.10;;;;;;;;;;5002036;28;21112;-72
2021/05/17 03:47:21;;;;;;;0.90;0.90;;;;;;;;;;4999243;28;20498;-72
2021/05/17 03:49:47;;;;;;;1.30;1.27;;;;;;;;;;4999296;28;20521;-72
2021/05/17 03:52:13;;;;;;;1.40;1.30;;;;;;;;;;4995000;28;20491;-74
2021/05/17 03:54:39;;;;;;;1.40;1.30;;;;;;;;;;4994633;28;20984;-73
2021/05/17 03:57:05;;;;;;;1.30;1.20;;;;;;;;;;5000354;28;20459;-73
2021/05/17 03:59:33;;;;;;;1.53;1.40;;;;;;;;;;4990742;28;20460;-73
2021/05/17 04:01:59;;;;;;;1.57;1.30;;;;;;;;;;4995084;28;20859;-72
2021/05/17 04:04:27;;;;;;;1.67;1.50;;;;;;;;;;4982994;28;20455;-72
2021/05/17 04:07:05;;;;;;;1.27;1.10;;;;;;;;;;4988912;28;20456;-72
2021/05/17 04:14:54;;;;;;;1.93;1.40;;;;;;;;;;4996227;28;20849;-73
2021/05/17 04:17:20;;;;;;;0.93;0.90;;;;;;;;;;4988921;28;20464;-73
2021/05/17 04:19:46;;;;;;;1.30;1.20;;;;;;;;;;5003103;28;20455;-73
2021/05/17 04:22:12;;;;;;;0.93;0.93;;;;;;;;;;4988957;28;21030;-72
2021/05/17 04:24:38;;;;;;;2.57;1.20;;;;;;;;;;5006047;28;20449;-74
2021/05/17 04:27:04;;;;;;;4.40;1.40;;;;;;;;;;4997336;28;20454;-74
2021/05/17 04:29:30;;;;;;;0.80;0.80;;;;;;;;;;4995464;28;20447;-73
2021/05/17 04:31:56;;;;;;;1.93;1.37;;;;;;;;;;4999171;28;20440;-73
2021/05/17 04:34:22;;;;;;;1.17;1.07;;;;;;;;;;4993311;28;20514;-73
2021/05/17 04:36:48;;;;;;;1.20;1.10;;;;;;;;;;5001293;28;20469;-74
2021/05/17 04:39:17;;;;;;;1.37;1.23;;;;;;;;;;4998804;28;20437;-73
2021/05/17 04:41:43;;;;;;;1.77;1.47;;;;;;;;;;4994879;28;20858;-73
2021/05/17 04:44:09;;;;;;;1.70;1.60;;;;;;;;;;4982984;28;20433;-70
2021/05/17 04:46:35;;;;;;;3.07;2.00;;;;;;;;;;4977304;28;20511;-71
2021/05/17 04:49:01;;;;;;;1.40;1.33;;;;;;;;;;4991252;28;20436;-71
2021/05/17 04:51:27;;;;;;;1.50;1.40;;;;;;;;;;4999008;28;20867;-74
2021/05/17 04:53:53;;;;;;;2.60;1.30;;;;;;;;;;4995202;28;21025;-72
2021/05/17 04:56:20;;;;;;;2.53;1.70;;;;;;;;;;4990989;28;20460;-73
2021/05/17 04:58:46;;;;;;;1.40;1.30;;;;;;;;;;4987318;28;20437;-71
2021/05/17 05:01:12;;;;;;;2.40;1.73;;;;;;;;;;4995813;28;20460;-70
2021/05/17 05:03:38;;;;;;;2.50;2.30;;;;;;;;;;4993977;28;20853;-73
2021/05/17 05:06:04;;;;;;;2.10;1.50;;;;;;;;;;4983785;28;20448;-73
2021/05/17 05:08:30;;;;;;;4.37;2.30;;;;;;;;;;4991524;28;20463;-73
2021/05/17 05:10:56;;;;;;;1.80;1.70;;;;;;;;;;4980614;28;20448;-73
2021/05/17 05:13:22;;;;;;;2.67;1.57;;;;;;;;;;5003918;28;20528;-73
2021/05/17 05:15:54;;;;;;;3.23;2.27;;;;;;;;;;4984485;28;20522;-73
2021/05/17 05:18:21;;;;;;;4.63;2.60;;;;;;;;;;4982504;28;20479;-73
2021/05/17 05:20:47;;;;;;;3.03;2.63;;;;;;;;;;4998455;28;20572;-73
2021/05/17 05:23:13;;;;;;;1.50;1.40;;;;;;;;;;4987485;28;20444;-73
2021/05/17 05:28:10;;;;;;;4.10;3.00;;;;;;;;;;4996865;28;20456;-69
2021/05/17 05:33:18;;;;;;;4.07;2.83;;;;;;;;;;4996509;28;20476;-72
2021/05/17 05:35:45;;;;;;;3.53;3.23;;;;;;;;;;5004761;28;20448;-73
2021/05/17 05:38:11;;;;;;;3.10;2.80;;;;;;;;;;4976064;28;20468;-72
2021/05/17 05:40:37;;;;;;;4.03;3.23;;;;;;;;;;5006485;28;20517;-71
2021/05/17 05:43:04;;;;;;;4.27;3.43;;;;;;;;;;5004619;28;20463;-72
2021/05/17 05:45:33;;;;;;;3.80;2.80;;;;;;;;;;4999209;28;20440;-72
2021/05/17 05:47:59;;;;;;;3.70;3.10;;;;;;;;;;4976841;28;20465;-71
2021/05/17 05:50:25;;;;;;;4.20;2.70;;;;;;;;;;4988542;28;20447;-72
2021/05/17 05:52:51;;;;;;;4.13;3.20;;;;;;;;;;4970013;28;20436;-73
2021/05/17 05:55:17;;;;;;;4.93;3.70;;;;;;;;;;4972095;28;20436;-72
2021/05/17 05:57:44;;;;;;;5.67;3.37;;;;;;;;;;4988027;28;20526;-71
2021/05/17 06:00:14;;;;;;;2.50;2.30;;;;;;;;;;4984776;28;20536;-75
2021/05/17 06:02:41;;;;;;;5.73;3.63;;;;;;;;;;4989927;28;20441;-72
2021/05/17 06:05:07;;;;;;;3.50;2.73;;;;;;;;;;4987680;28;20431;-72
2021/05/17 06:07:33;;;;;;;3.30;2.97;;;;;;;;;;4988517;28;20475;-75
2021/05/17 06:09:59;;;;;;;4.83;2.63;;;;;;;;;;4988609;28;20543;-72
2021/05/17 06:12:25;;;;;;;3.80;2.93;;;;;;;;;;4990917;28;20452;-73
2021/05/17 06:15:00;;;;;;;4.50;3.10;;;;;;;;;;4979329;28;20455;-72
2021/05/17 06:17:26;;;;;;;2.80;2.60;;;;;;;;;;5000156;28;20478;-72
2021/05/17 06:19:53;;;;;;;3.80;3.40;;;;;;;;;;4977741;28;20471;-72
2021/05/17 06:22:21;;;;;;;5.60;3.57;;;;;;;;;;5003537;28;20483;-71
2021/05/17 06:24:47;;;;;;;4.70;3.67;;;;;;;;;;5004700;28;20517;-74
2021/05/17 06:27:13;;;;;;;3.37;3.00;;;;;;;;;;4987772;28;20464;-74
2021/05/17 06:29:39;;;;;;;3.83;2.97;;;;;;;;;;5014198;28;20439;-73
2021/05/17 06:32:06;;;;;;;4.67;3.47;;;;;;;;;;4989290;28;20928;-73
2021/05/17 06:34:33;;;;;;;4.13;3.13;;;;;;;;;;4998564;28;20435;-71
2021/05/17 06:36:59;;;;;;;4.00;3.40;;;;;;;;;;4984532;28;20467;-71
2021/05/17 06:39:25;;;;;;;4.10;3.50;;;;;;;;;;4987595;28;20943;-72
2021/05/17 06:41:52;;;;;;;4.90;3.00;;;;;;;;;;5001866;28;20486;-73
2021/05/17 06:44:18;;;;;;;6.47;3.13;;;;;;;;;;4992804;28;20473;-73
2021/05/17 06:46:44;;;;;;;6.20;3.53;;;;;;;;;;4984551;28;20465;-73
2021/05/17 06:49:10;;;;;;;3.80;2.90;;;;;;;;;;5003915;28;20446;-74
2021/05/17 06:51:36;;;;;;;3.80;3.40;;;;;;;;;;5002211;28;20444;-72
2021/05/17 06:54:03;;;;;;;5.27;3.50;;;;;;;;;;5003173;28;20476;-75
2021/05/17 06:56:42;;;;;;;3.17;2.90;;;;;;;;;;4988710;28;20436;-72
2021/05/17 06:59:13;;;;;;;3.73;2.57;;;;;;;;;;5010970;28;21307;-72
2021/05/17 07:01:39;;;;;;;4.70;3.60;;;;;;;;;;5003832;28;20455;-72
2021/05/17 07:04:09;;;;;;;3.17;2.87;;;;;;;;;;4978713;28;20429;-71
2021/05/17 07:06:35;;;;;;;3.80;2.73;;;;;;;;;;5006696;28;20559;-74
2021/05/17 07:11:51;;;;;;;3.50;2.60;;;;;;;;;;5007998;28;20483;-71
2021/05/17 07:14:17;;;;;;;3.03;2.67;;;;;;;;;;5005016;28;20425;-72
2021/05/17 07:16:43;;;;;;;2.47;2.23;;;;;;;;;;4989061;28;20471;-72
2021/05/17 07:19:09;;;;;;;2.50;2.20;;;;;;;;;;4988356;28;20527;-76
2021/05/17 07:24:22;;;;;;;2.63;2.30;;;;;;;;;;4998815;28;20494;-72
2021/05/17 07:26:51;;;;;;;3.70;1.73;;;;;;;;;;4981351;28;21060;-72
2021/05/17 07:29:19;;;;;;;1.67;1.57;;;;;;;;;;4977189;28;20957;-74
2021/05/17 07:31:45;;;;;;;2.80;1.90;;;;;;;;;;4996480;28;20464;-72
2021/05/17 07:34:11;;;;;;;3.60;2.50;;;;;;;;;;4979979;28;20435;-73
2021/05/17 07:36:37;;;;;;;2.63;2.40;;;;;;;;;;4981511;28;20457;-75
2021/05/17 07:39:03;;;;;;;1.90;1.80;;;;;;;;;;4978525;28;20453;-74
2021/05/17 07:41:29;;;;;;;1.80;1.70;;;;;;;;;;4983422;28;20464;-73
2021/05/17 07:43:55;;;;;;;1.70;1.57;;;;;;;;;;4988664;28;20440;-73
2021/05/17 07:46:21;;;;;;;1.93;1.73;;;;;;;;;;5011566;28;20440;-72
2021/05/17 07:49:12;;;;;;;2.77;2.50;;;;;;;;;;4990341;28;20439;-73
2021/05/17 07:51:39;;;;;;;4.10;1.90;;;;;;;;;;5006025;28;20443;-72
2021/05/17 07:54:05;;;;;;;3.20;2.60;;;;;;;;;;5003129;28;20436;-71
2021/05/17 07:56:31;;;;;;;3.30;2.57;;;;;;;;;;5003143;28;20432;-72
2021/05/17 07:58:58;;;;;;;2.13;1.93;;;;;;;;;;4983984;28;20421;-71
2021/05/17 08:01:24;;;;;;;2.57;2.13;;;;;;;;;;5003704;28;20541;-72
2021/05/17 08:03:50;;;;;;;2.30;2.10;;;;;;;;;;4988368;28;20514;-73
2021/05/17 08:06:17;;;;;;;2.23;2.07;;;;;;;;;;5005154;28;20880;-72
2021/05/17 08:08:43;;;;;;;2.03;1.80;;;;;;;;;;4995199;28;20874;-73
2021/05/17 08:11:10;;;;;;;3.63;2.93;;;;;;;;;;5013738;28;20440;-71
2021/05/17 08:13:38;;;;;;;4.33;2.40;;;;;;;;;;4992180;28;20484;-73
2021/05/17 08:16:04;;;;;;;3.13;2.83;;;;;;;;;;4996679;28;20428;-72
2021/05/17 08:18:31;;;;;;;4.07;2.10;;;;;;;;;;5002679;28;20483;-72
2021/05/17 08:20:57;;;;;;;4.53;2.10;;;;;;;;;;4982334;28;20486;-72
2021/05/17 08:23:23;;;;;;;3.10;2.67;;;;;;;;;;4997581;28;20486;-72
2021/05/17 08:25:52;;;;;;;3.70;2.00;;;;;;;;;;4980524;28;20455;-73
2021/05/17 08:28:18;;;;;;;3.30;3.00;;;;;;;;;;4999226;28;20456;-72
2021/05/17 08:30:46;;;;;;;5.33;2.97;;;;;;;;;;4991496;28;21081;-74
2021/05/17 08:33:14;;;;;;;7.00;3.47;;;;;;;;;;5001180;28;20437;-73
2021/05/17 08:35:42;;;;;;;4.00;3.60;;;;;;;;;;4999901;28;20786;-72
2021/05/17 08:38:08;;;;;;;6.00;3.30;;;;;;;;;;4974723;28;21050;-72
2021/05/17 08:40:35;;;;;;;4.23;3.30;;;;;;;;;;4975800;28;20492;-72
2021/05/17 08:43:01;;;;;;;3.30;3.00;;;;;;;;;;4977685;28;20425;-72
2021/05/17 08:45:28;;;;;;;3.37;2.73;;;;;;;;;;4990285;28;20880;-71
2021/05/17 08:47:54;;;;;;;3.80;3.40;;;;;;;;;;4991503;28;20506;-72
2021/05/17 08:50:20;;;;;;;3.47;3.07;;;;;;;;;;4995958;28;20483;-72
2021/05/17 08:52:46;;;;;;;4.80;4.30;;;;;;;;;;4998754;28;20521;-72
2021/05/17 08:55:13;;;;;;;3.13;2.93;;;;;;;;;;4990517;28;20490;-72
2021/05/17 08:57:41;;;;;;;4.00;3.47;;;;;;;;;;4991027;28;20580;-73
2021/05/17 09:00:08;;;;;;;4.43;3.40;;;;;;;;;;4982816;28;21098;-71
2021/05/17 09:02:34;;;;;;;4.60;3.53;;;;;;;;;;4992642;28;20424;-71
2021/05/17 09:05:09;;;;;;;6.27;3.67;;;;;;;;;;4994214;28;20860;-72
2021/05/17 09:07:41;;;;;;;3.67;3.30;;;;;;;;;;4994862;28;20511;-74
2021/05/17 09:10:35;;;;;;;3.37;3.07;;;;;;;;;;4996055;28;20428;-72
2021/05/17 09:13:13;;;;;;;6.00;4.10;;;;;;;;;;4980886;28;20449;-72
2021/05/17 09:15:39;;;;;;;6.13;3.73;;;;;;;;;;4996657;28;20968;-73
2021/05/17 09:18:07;;;;;;;4.87;4.10;;;;;;;;;;4990425;28;20472;-73
2021/05/17 09:20:34;;;;;;;5.00;3.17;;;;;;;;;;4991881;28;20515;-72
2021/05/17 09:23:10;;;;;;;4.93;3.53;;;;;;;;;;4982661;28;20471;-71
2021/05/17 09:25:40;;;;;;;3.90;3.50;;;;;;;;;;4997884;28;20969;-75
2021/05/17 09:28:11;;;;;;;4.87;3.70;;;;;;;;;;4992708;28;20510;-72
2021/05/17 09:30:48;;;;;;;4.10;3.70;;;;;;;;;;4993961;28;20439;-70
2021/05/17 09:33:15;;;;;;;5.47;4.07;;;;;;;;;;4982878;28;20441;-73
2021/05/17 09:35:42;;;;;;;3.17;2.87;;;;;;;;;;4982464;28;20464;-72
2021/05/17 09:38:17;;;;;;;5.50;4.40;;;;;;;;;;4992807;28;20456;-73
2021/05/17 09:40:43;;;;;;;4.47;3.40;;;;;;;;;;5007118;28;20452;-70
2021/05/17 09:43:10;;;;;;;4.70;3.33;;;;;;;;;;4982127;28;20432;-72
2021/05/17 09:45:38;;;;;;;3.37;2.60;;;;;;;;;;4977594;28;20444;-73
2021/05/17 09:48:29;;;;;;;4.40;2.83;;;;;;;;;;4998286;28;20966;-72
2021/05/17 09:50:55;;;;;;;2.60;2.37;;;;;;;;;;4993927;28;20594;-73
2021/05/17 09:53:40;;;;;;;1.93;1.80;;;;;;;;;;5006425;28;20533;-74
2021/05/17 09:56:08;;;;;;;1.40;1.30;;;;;;;;;;4998309;28;20468;-74
2021/05/17 09:58:39;;;;;;;0.90;0.90;;;;;;;;;;4993172;28;21016;-72
2021/05/17 10:01:07;;;;;;;1.00;0.90;;;;;;;;;;4992911;28;20519;-73
2021/05/17 10:03:34;;;;;;;1.07;0.97;;;;;;;;;;4999020;28;20432;-71
2021/05/17 10:06:00;;;;;;;0.90;0.90;;;;;;;;;;4998826;28;20531;-72
2021/05/17 10:08:26;;;;;;;0.80;0.80;;;;;;;;;;4985394;28;20611;-72
2021/05/17 10:10:52;;;;;;;0.67;0.67;;;;;;;;;;4982587;28;20471;-72
2021/05/17 10:13:18;;;;;;;0.70;0.70;;;;;;;;;;4982731;28;20965;-74
2021/05/17 10:15:47;;;;;;;0.60;0.60;;;;;;;;;;4997068;28;20436;-72
2021/05/17 10:18:13;;;;;;;0.73;0.73;;;;;;;;;;4979752;28;20466;-72
2021/05/17 10:20:40;;;;;;;0.90;0.77;;;;;;;;;;5000208;28;20459;-71
2021/05/17 10:23:06;;;;;;;0.60;0.60;;;;;;;;;;4982435;28;20452;-73
2021/05/17 10:25:35;;;;;;;1.27;0.60;;;;;;;;;;5000390;28;20440;-71
2021/05/17 10:28:13;;;;;;;0.70;0.70;;;;;;;;;;4985416;28;20574;-71
2021/05/17 10:30:39;;;;;;;1.53;0.70;;;;;;;;;;4982610;28;20447;-72
2021/05/17 10:33:06;;;;;;;0.57;0.57;;;;;;;;;;5007750;28;20570;-71
2021/05/17 10:35:32;;;;;;;0.90;0.70;;;;;;;;;;5009241;28;20637;-70
2021/05/17 10:39:03;;;;;;;0.50;0.50;;;;;;;;;;4986743;28;20471;-72
2021/05/17 10:41:26;;;;;;;0.70;0.70;;;;;;;;;;4983383;28;20599;-72
2021/05/17 10:44:11;;;;;;;1.37;1.00;;;;;;;;;;4998294;28;20763;-71
2021/05/17 10:46:50;;;;;;;1.20;1.10;;;;;;;;;;4998472;28;20467;-72
2021/05/17 10:49:22;;;;;;;1.43;1.30;;;;;;;;;;4979791;28;20431;-71
2021/05/17 10:51:49;;;;;;;1.10;1.00;;;;;;;;;;4999121;28;20942;-71
2021/05/17 10:54:24;;;;;;;1.40;1.30;;;;;;;;;;4988516;28;20437;-72
2021/05/17 10:57:04;;;;;;;1.33;1.23;;;;;;;;;;4986428;28;20448;-73
2021/05/17 11:00:34;;;;;;;1.47;1.07;;;;;;;;;;4978130;28;20920;-73
2021/05/17 11:02:28;;;;;;;2.30;2.10;;;;;;;;;;4974486;28;20425;-73
2021/05/17 11:05:01;;;;;;;1.20;1.10;;;;;;;;;;4999192;28;20909;-73
2021/05/17 11:07:28;;;;;;;1.40;1.30;;;;;;;;;;5015919;28;20456;-72
2021/05/17 11:10:01;;;;;;;2.23;1.33;;;;;;;;;;4986331;28;20448;-71
2021/05/17 11:12:27;;;;;;;2.07;1.43;;;;;;;;;;4995315;28;20437;-72
2021/05/17 11:15:02;;;;;;;2.87;2.03;;;;;;;;;;4990103;28;20470;-73
2021/05/17 11:17:28;;;;;;;2.07;1.50;;;;;;;;;;4984852;28;20476;-75
2021/05/17 11:19:56;;;;;;;1.97;1.27;;;;;;;;;;4993971;28;20880;-73
2021/05/17 11:22:22;;;;;;;1.30;1.00;;;;;;;;;;5001623;28;20434;-71
2021/05/17 11:24:54;;;;;;;2.30;1.57;;;;;;;;;;5007911;28;20465;-72
2021/05/17 11:27:40;;;;;;;1.13;1.10;;;;;;;;;;4991813;28;20453;-75
2021/05/17 11:30:27;;;;;;;1.10;1.00;;;;;;;;;;4992712;28;20451;-71
2021/05/17 11:33:12;;;;;;;1.50;1.30;;;;;;;;;;4975710;28;20449;-73
2021/05/17 11:35:38;;;;;;;1.10;1.00;;;;;;;;;;5002910;28;21226;-72
2021/05/17 11:38:08;;;;;;;1.10;1.00;;;;;;;;;;5005776;28;20456;-72
2021/05/17 11:40:34;;;;;;;1.60;1.50;;;;;;;;;;5008094;28;20555;-72
2021/05/17 11:43:00;;;;;;;2.50;1.43;;;;;;;;;;4989754;28;20433;-72
2021/05/17 11:45:27;;;;;;;1.27;1.17;;;;;;;;;;5005966;28;20434;-73
2021/05/17 11:47:53;;;;;;;4.40;1.50;;;;;;;;;;4987081;28;20514;-72
2021/05/17 11:50:22;;;;;;;1.40;1.30;;;;;;;;;;4993030;28;20884;-72
2021/05/17 11:52:48;;;;;;;1.60;1.50;;;;;;;;;;5013204;28;20431;-72
2021/05/17 11:55:14;;;;;;;1.93;1.67;;;;;;;;;;4994964;28;20515;-72
2021/05/17 11:57:41;;;;;;;1.33;1.23;;;;;;;;;;5012959;28;20661;-72
2021/05/17 12:00:11;;;;;;;2.10;1.90;;;;;;;;;;4994596;28;20509;-73
2021/05/17 12:02:44;;;;;;;2.80;2.10;;;;;;;;;;5009497;28;20442;-72
2021/05/17 12:05:10;;;;;;;3.07;2.23;;;;;;;;;;5006095;28;20520;-72
2021/05/17 12:07:43;;;;;;;2.67;2.00;;;;;;;;;;5010793;28;20452;-73
2021/05/17 12:10:10;;;;;;;2.60;2.03;;;;;;;;;;5009025;28;20934;-73
2021/05/17 12:12:36;;;;;;;2.90;2.37;;;;;;;;;;5013163;28;20503;-74
2021/05/17 12:15:05;;;;;;;1.53;1.43;;;;;;;;;;5001315;28;20528;-71
2021/05/17 12:17:35;;;;;;;1.80;1.70;;;;;;;;;;5003958;28;21296;-73
2021/05/17 12:20:04;;;;;;;1.93;1.80;;;;;;;;;;5008224;28;20524;-73
2021/05/17 12:22:35;;;;;;;2.10;1.90;;;;;;;;;;5008776;28;20468;-72
2021/05/17 12:25:04;;;;;;;2.40;2.00;;;;;;;;;;5003291;28;20843;-72
2021/05/17 12:27:30;;;;;;;1.73;1.63;;;;;;;;;;5010832;28;20458;-73
2021/05/17 12:29:59;;;;;;;1.97;1.50;;;;;;;;;;4989472;28;20435;-72
2021/05/17 12:32:26;;;;;;;4.60;1.60;;;;;;;;;;4979678;28;20444;-73
2021/05/17 12:34:59;;;;;;;2.60;1.70;;;;;;;;;;4997789;28;20435;-72
2021/05/17 12:37:26;;;;;;;3.63;2.10;;;;;;;;;;5000135;28;20845;-73
2021/05/17 12:40:11;;;;;;;2.23;2.03;;;;;;;;;;4991089;28;20452;-73
2021/05/17 12:42:37;;;;;;;3.30;2.30;;;;;;;;;;5005790;28;20430;-71
2021/05/17 12:45:05;;;;;;;3.20;2.50;;;;;;;;;;4980706;28;20508;-72
2021/05/17 12:47:38;;;;;;;3.80;3.00;;;;;;;;;;4999215;28;20451;-73
2021/05/17 12:50:05;;;;;;;4.60;3.83;;;;;;;;;;5006350;28;20430;-72
2021/05/17 12:52:37;;;;;;;2.97;2.77;;;;;;;;;;5002970;28;20442;-72
2021/05/17 12:55:09;;;;;;;3.37;3.07;;;;;;;;;;4999773;28;20455;-72
2021/05/17 12:57:45;;;;;;;3.80;2.23;;;;;;;;;;4998778;28;20455;-72
2021/05/17 13:00:12;;;;;;;3.77;2.67;;;;;;;;;;4987522;28;20460;-70
2021/05/17 13:02:38;;;;;;;4.07;2.80;;;;;;;;;;4979593;28;20432;-73
2021/05/17 13:05:05;;;;;;;3.17;2.87;;;;;;;;;;5008038;28;20431;-71
2021/05/17 13:07:33;;;;;;;3.10;2.90;;;;;;;;;;4988809;28;20487;-72
2021/05/17 13:09:59;;;;;;;4.33;3.67;;;;;;;;;;5004413;28;20436;-71
2021/05/17 13:12:26;;;;;;;4.23;3.63;;;;;;;;;;4987460;28;20431;-72
2021/05/17 13:14:52;;;;;;;4.43;3.57;;;;;;;;;;4989447;28;20826;-72
2021/05/17 13:17:18;;;;;;;3.67;3.10;;;;;;;;;;4993208;28;20459;-71
2021/05/17 13:33:18;;;;;;;7.00;3.50;;;;;;;;;;4996050;28;20539;-72
2021/05/17 13:35:44;;;;;;;4.97;2.80;;;;;;;;;;4999546;28;20482;-72
2021/05/17 13:38:10;;;;;;;3.67;2.90;;;;;;;;;;4989935;28;20460;-71
2021/05/17 13:40:36;;;;;;;1.70;1.60;;;;;;;;;;4988199;28;20575;-73
2021/05/17 13:43:02;;;;;;;1.63;1.30;;;;;;;;;;4983961;28;20428;-72
2021/05/17 13:45:28;;;;;;;2.13;1.87;;;;;;;;;;4988347;28;20816;-75
2021/05/17 13:47:54;;;;;;;2.90;2.67;;;;;;;;;;4995807;28;20467;-73
2021/05/17 13:50:20;;;;;;;4.87;2.63;;;;;;;;;;4998238;28;20436;-74
2021/05/17 13:52:46;;;;;;;1.60;1.50;;;;;;;;;;5006979;28;20530;-73
2021/05/17 13:55:13;;;;;;;2.03;1.93;;;;;;;;;;4996285;28;20871;-75
2021/05/17 13:57:39;;;;;;;3.47;2.17;;;;;;;;;;4994779;28;21500;-69
2021/05/17 14:00:06;;;;;;;3.90;3.00;;;;;;;;;;4995469;28;21169;-74
2021/05/17 14:02:32;;;;;;;4.60;3.60;;;;;;;;;;4995312;28;20436;-71
2021/05/17 14:04:58;;;;;;;3.40;2.97;;;;;;;;;;4996618;28;20463;-70
2021/05/17 14:07:24;;;;;;;7.53;3.87;;;;;;;;;;4974408;28;20459;-71
2021/05/17 14:09:50;;;;;;;4.13;3.10;;;;;;;;;;4993662;28;20505;-71
2021/05/17 14:12:16;;;;;;;4.90;3.50;;;;;;;;;;4985822;28;20467;-71
2021/05/17 14:14:42;;;;;;;9.03;4.10;;;;;;;;;;4994015;28;20943;-71
2021/05/17 14:17:09;;;;;;;5.60;4.13;;;;;;;;;;4979246;28;20506;-71
2021/05/17 14:19:36;;;;;;;7.23;4.50;;;;;;;;;;4977998;28;20447;-72
2021/05/17 14:22:04;;;;;;;5.77;3.70;;;;;;;;;;4998672;28;20441;-74
2021/05/17 14:24:30;;;;;;;4.07;3.43;;;;;;;;;;4977043;28;20556;-75
2021/05/17 14:26:56;;;;;;;7.43;4.20;;;;;;;;;;4996010;28;21048;-72
2021/05/17 14:29:22;;;;;;;6.33;4.17;;;;;;;;;;4998266;28;20442;-72
2021/05/17 14:31:49;;;;;;;6.20;4.40;;;;;;;;;;5003182;28;20523;-72
2021/05/17 14:34:15;;;;;;;6.10;3.90;;;;;;;;;;4976832;28;20447;-71
2021/05/17 14:36:41;;;;;;;4.90;3.93;;;;;;;;;;4993109;28;20467;-72
2021/05/17 14:39:08;;;;;;;4.83;4.10;;;;;;;;;;4986113;28;20472;-73
2021/05/17 14:41:35;;;;;;;4.43;3.90;;;;;;;;;;4975403;28;20468;-72
2021/05/17 14:44:01;;;;;;;4.80;3.87;;;;;;;;;;4976133;28;20482;-71
2021/05/17 14:46:27;;;;;;;5.20;4.70;;;;;;;;;;4980588;28;20915;-71
2021/05/17 14:48:53;;;;;;;5.10;3.60;;;;;;;;;;4988917;28;20429;-71
2021/05/17 14:51:19;;;;;;;4.70;3.50;;;;;;;;;;4992323;28;21044;-73
2021/05/17 14:53:45;;;;;;;5.20;3.83;;;;;;;;;;4996164;28;20437;-71
2021/05/17 14:56:11;;;;;;;5.43;4.60;;;;;;;;;;4994251;28;20439;-71
2021/05/17 14:58:37;;;;;;;5.10;4.30;;;;;;;;;;5001150;28;20844;-70
2021/05/17 15:01:04;;;;;;;4.47;3.73;;;;;;;;;;4981438;28;21083;-73
2021/05/17 15:03:30;;;;;;;7.53;3.97;;;;;;;;;;4990988;28;20432;-71
2021/05/17 15:05:57;;;;;;;5.43;3.93;;;;;;;;;;4982320;28;23264;-72
2021/05/17 15:08:23;;;;;;;3.93;3.27;;;;;;;;;;4982139;28;20455;-72
2021/05/17 15:10:49;;;;;;;6.00;4.17;;;;;;;;;;4988831;28;24401;-74
2021/05/17 15:13:16;;;;;;;6.53;4.77;;;;;;;;;;4982692;28;21042;-72
2021/05/17 15:15:42;;;;;;;5.83;4.83;;;;;;;;;;4989459;28;20530;-73
2021/05/17 15:18:08;;;;;;;5.47;4.00;;;;;;;;;;5000757;28;20475;-72